createdAt,value
2016-11-04T00:00:43.119Z,1.45
2016-11-04T00:01:43.072Z,1.5
2016-11-04T00:02:42.761Z,1.5
2016-11-04T00:03:42.687Z,1.42
2016-11-04T00:04:42.640Z,1.41
2016-11-04T00:05:42.905Z,1.34
2016-11-04T00:06:42.864Z,1.37
2016-11-04T00:07:42.520Z,1.48
2016-11-04T00:08:42.779Z,1.44
2016-11-04T00:09:42.737Z,1.36
2016-11-04T00:10:42.693Z,1.3
2016-11-04T00:11:42.694Z,1.26
2016-11-04T00:12:42.616Z,1.3
2016-11-04T00:13:41.969Z,1.24
2016-11-04T00:14:42.228Z,1.26
2016-11-04T00:15:42.485Z,1.29
2016-11-04T00:16:42.459Z,1.27
2016-11-04T00:17:42.099Z,1.26
2016-11-04T00:18:42.362Z,1.24
2016-11-04T00:19:42.322Z,1.22
2016-11-04T00:20:42.278Z,1.2
2016-11-04T00:21:42.236Z,1.23
2016-11-04T00:22:42.195Z,1.27
2016-11-04T00:23:42.154Z,1.27
2016-11-04T00:24:41.813Z,1.26
2016-11-04T00:25:42.071Z,1.2
2016-11-04T00:26:42.029Z,1.15
2016-11-04T00:27:41.683Z,1.16
2016-11-04T00:28:41.647Z,1.23
2016-11-04T00:29:41.903Z,1.15
2016-11-04T00:30:41.862Z,1.18
2016-11-04T00:31:41.821Z,1.24
2016-11-04T00:32:41.791Z,1.18
2016-11-04T00:33:41.736Z,1.15
2016-11-04T00:34:41.696Z,1.14
2016-11-04T00:35:41.651Z,1.14
2016-11-04T00:36:41.613Z,1.14
2016-11-04T00:37:41.569Z,1.12
2016-11-04T00:38:41.533Z,1.18
2016-11-04T00:39:41.488Z,1.12
2016-11-04T00:40:41.449Z,1.05
2016-11-04T00:41:41.406Z,1.09
2016-11-04T00:42:41.058Z,1.04
2016-11-04T00:43:41.320Z,1.04
2016-11-04T00:44:41.279Z,1
2016-11-04T00:45:41.237Z,0.97
2016-11-04T00:46:41.205Z,1.05
2016-11-04T00:47:41.161Z,0.94
2016-11-04T00:48:40.511Z,0.97
2016-11-04T00:49:41.071Z,0.94
2016-11-04T00:50:41.028Z,0.88
2016-11-04T00:51:40.982Z,0.87
2016-11-04T00:52:40.952Z,0.93
2016-11-04T00:53:40.905Z,0.84
2016-11-04T00:54:40.863Z,0.84
2016-11-04T00:55:40.518Z,0.8
2016-11-04T00:56:40.479Z,0.86
2016-11-04T00:57:40.747Z,0.79
2016-11-04T00:58:40.693Z,0.76
2016-11-04T00:59:40.657Z,0.72
2016-11-04T01:00:40.308Z,0.84
2016-11-04T01:01:40.567Z,0.78
2016-11-04T01:02:40.527Z,0.76
2016-11-04T01:03:40.185Z,0.7
2016-11-04T01:04:40.148Z,0.66
2016-11-04T01:05:40.414Z,0.7
2016-11-04T01:06:40.358Z,0.78
2016-11-04T01:07:40.322Z,0.66
2016-11-04T01:08:40.279Z,0.65
2016-11-04T01:09:39.934Z,0.66
2016-11-04T01:10:39.899Z,0.72
2016-11-04T01:11:39.848Z,0.66
2016-11-04T01:12:40.112Z,0.68
2016-11-04T01:13:40.068Z,0.65
2016-11-04T01:14:40.030Z,0.66
2016-11-04T01:15:39.987Z,0.6
2016-11-04T01:16:39.967Z,0.58
2016-11-04T01:17:39.904Z,0.58
2016-11-04T01:18:39.562Z,0.58
2016-11-04T01:19:39.821Z,0.61
2016-11-04T01:20:39.783Z,0.58
2016-11-04T01:21:39.732Z,0.51
2016-11-04T01:22:39.691Z,0.49
2016-11-04T01:23:39.650Z,0.5
2016-11-04T01:24:39.603Z,0.53
2016-11-04T01:25:39.563Z,0.46
2016-11-04T01:26:39.528Z,0.55
2016-11-04T01:27:39.480Z,0.51
2016-11-04T01:28:39.445Z,0.49
2016-11-04T01:29:39.395Z,0.49
2016-11-04T01:30:39.051Z,0.44
2016-11-04T01:31:39.351Z,0.41
2016-11-04T01:32:39.273Z,0.5
2016-11-04T01:33:38.627Z,0.42
2016-11-04T01:34:39.187Z,0.36
2016-11-04T01:35:39.149Z,0.41
2016-11-04T01:36:39.104Z,0.38
2016-11-04T01:37:39.061Z,0.35
2016-11-04T01:38:39.022Z,0.38
2016-11-04T01:39:38.675Z,0.33
2016-11-04T01:40:38.934Z,0.36
2016-11-04T01:41:38.933Z,0.29
2016-11-04T01:42:38.853Z,0.29
2016-11-04T01:43:38.860Z,0.28
2016-11-04T01:44:38.768Z,0.29
2016-11-04T01:45:38.730Z,0.29
2016-11-04T01:46:38.686Z,0.32
2016-11-04T01:47:38.647Z,0.17
2016-11-04T01:48:38.601Z,0.31
2016-11-04T01:49:38.557Z,0.21
2016-11-04T01:50:38.216Z,0.33
2016-11-04T01:51:38.470Z,0.26
2016-11-04T01:52:38.440Z,0.18
2016-11-04T01:53:38.090Z,0.26
2016-11-04T01:54:38.347Z,0.31
2016-11-04T01:55:38.340Z,0.28
2016-11-04T01:56:38.265Z,0.21
2016-11-04T01:57:38.222Z,0.28
2016-11-04T01:58:38.183Z,0.23
2016-11-04T01:59:38.137Z,0.18
2016-11-04T02:00:38.096Z,0.21
2016-11-04T02:01:37.753Z,0.26
2016-11-04T02:02:38.012Z,0.35
2016-11-04T02:03:37.970Z,0.2
2016-11-04T02:04:37.957Z,0.18
2016-11-04T02:05:37.882Z,0.21
2016-11-04T02:06:37.542Z,0.18
2016-11-04T02:07:37.800Z,0.15
2016-11-04T02:08:37.462Z,0.15
2016-11-04T02:09:37.415Z,0.13
2016-11-04T02:10:37.673Z,0.21
2016-11-04T02:11:37.632Z,0.23
2016-11-04T02:12:37.590Z,0.24
2016-11-04T02:13:37.549Z,0.13
2016-11-04T02:14:37.500Z,0.1
2016-11-04T02:15:37.465Z,0.15
2016-11-04T02:16:37.430Z,0.08
2016-11-04T02:17:37.415Z,0.15
2016-11-04T02:18:37.349Z,0.18
2016-11-04T02:19:37.300Z,0.08
2016-11-04T02:20:37.252Z,0.17
2016-11-04T02:21:37.211Z,0.14
2016-11-04T02:22:37.169Z,0.15
2016-11-04T02:23:37.129Z,0.11
2016-11-04T02:24:37.081Z,0.03
2016-11-04T02:25:37.039Z,0.1
2016-11-04T02:26:36.999Z,0.04
2016-11-04T02:27:36.956Z,0.04
2016-11-04T02:28:36.620Z,0
2016-11-04T02:29:36.571Z,0.03
2016-11-04T02:30:36.832Z,0.1
2016-11-04T02:31:36.485Z,0.1
2016-11-04T02:32:36.749Z,0.04
2016-11-04T02:33:36.703Z,0.07
2016-11-04T02:34:36.704Z,-0.05
2016-11-04T02:35:36.625Z,0.03
2016-11-04T02:36:36.581Z,0
2016-11-04T02:37:36.541Z,0.02
2016-11-04T02:38:36.493Z,0.02
2016-11-04T02:39:36.455Z,-0.05
2016-11-04T02:40:36.406Z,-0.03
2016-11-04T02:41:36.367Z,-0.05
2016-11-04T02:42:36.326Z,-0.04
2016-11-04T02:43:36.284Z,-0.04
2016-11-04T02:44:36.244Z,-0.1
2016-11-04T02:45:35.899Z,-0.05
2016-11-04T02:46:35.873Z,-0.03
2016-11-04T02:47:36.120Z,0.02
2016-11-04T02:48:36.067Z,-0.07
2016-11-04T02:49:36.061Z,-0.07
2016-11-04T02:50:35.988Z,-0.07
2016-11-04T02:51:35.946Z,-0.14
2016-11-04T02:52:35.903Z,-0.14
2016-11-04T02:53:35.862Z,-0.08
2016-11-04T02:54:35.818Z,-0.14
2016-11-04T02:55:35.782Z,-0.1
2016-11-04T02:56:35.737Z,-0.11
2016-11-04T02:57:35.695Z,-0.16
2016-11-04T02:58:35.649Z,-0.15
2016-11-04T02:59:35.619Z,-0.14
2016-11-04T03:00:35.566Z,-0.15
2016-11-04T03:01:35.523Z,-0.19
2016-11-04T03:02:35.481Z,-0.16
2016-11-04T03:03:35.471Z,-0.16
2016-11-04T03:04:35.402Z,-0.21
2016-11-04T03:05:35.363Z,-0.18
2016-11-04T03:06:34.705Z,-0.23
2016-11-04T03:07:35.268Z,-0.21
2016-11-04T03:08:35.233Z,-0.22
2016-11-04T03:09:34.888Z,-0.18
2016-11-04T03:10:35.147Z,-0.16
2016-11-04T03:11:35.098Z,-0.28
2016-11-04T03:12:35.059Z,-0.28
2016-11-04T03:13:34.716Z,-0.16
2016-11-04T03:14:34.976Z,-0.25
2016-11-04T03:15:34.931Z,-0.26
2016-11-04T03:16:34.893Z,-0.26
2016-11-04T03:17:34.852Z,-0.19
2016-11-04T03:18:34.802Z,-0.21
2016-11-04T03:19:34.766Z,-0.31
2016-11-04T03:20:34.719Z,-0.26
2016-11-04T03:21:34.375Z,-0.33
2016-11-04T03:22:34.635Z,-0.19
2016-11-04T03:23:34.603Z,-0.28
2016-11-04T03:24:34.552Z,-0.33
2016-11-04T03:25:34.507Z,-0.26
2016-11-04T03:26:34.472Z,-0.21
2016-11-04T03:27:34.428Z,-0.16
2016-11-04T03:28:34.078Z,-0.19
2016-11-04T03:29:34.344Z,-0.21
2016-11-04T03:30:34.296Z,-0.23
2016-11-04T03:31:34.254Z,-0.26
2016-11-04T03:32:34.217Z,-0.26
2016-11-04T03:33:34.168Z,-0.26
2016-11-04T03:34:33.832Z,-0.26
2016-11-04T03:35:34.088Z,-0.31
2016-11-04T03:36:34.059Z,-0.33
2016-11-04T03:37:34.003Z,-0.34
2016-11-04T03:38:33.964Z,-0.31
2016-11-04T03:39:33.614Z,-0.33
2016-11-04T03:40:33.572Z,-0.37
2016-11-04T03:41:33.840Z,-0.39
2016-11-04T03:42:33.789Z,-0.37
2016-11-04T03:43:33.744Z,-0.43
2016-11-04T03:44:33.433Z,-0.39
2016-11-04T03:45:33.661Z,-0.36
2016-11-04T03:46:33.318Z,-0.44
2016-11-04T03:47:33.579Z,-0.4
2016-11-04T03:48:33.538Z,-0.39
2016-11-04T03:49:33.498Z,-0.42
2016-11-04T03:50:33.451Z,-0.44
2016-11-04T03:51:33.439Z,-0.43
2016-11-04T03:52:33.396Z,-0.36
2016-11-04T03:53:33.327Z,-0.39
2016-11-04T03:54:33.277Z,-0.44
2016-11-04T03:55:33.244Z,-0.44
2016-11-04T03:56:33.195Z,-0.39
2016-11-04T03:57:33.157Z,-0.43
2016-11-04T03:58:33.115Z,-0.4
2016-11-04T03:59:33.067Z,-0.39
2016-11-04T04:00:33.027Z,-0.42
2016-11-04T04:01:32.982Z,-0.43
2016-11-04T04:02:32.942Z,-0.4
2016-11-04T04:03:32.899Z,-0.37
2016-11-04T04:04:32.854Z,-0.4
2016-11-04T04:05:32.812Z,-0.39
2016-11-04T04:06:32.768Z,-0.42
2016-11-04T04:07:32.123Z,-0.37
2016-11-04T04:08:32.687Z,-0.4
2016-11-04T04:09:32.069Z,-0.34
2016-11-04T04:10:32.598Z,-0.43
2016-11-04T04:11:32.559Z,-0.37
2016-11-04T04:12:32.517Z,-0.39
2016-11-04T04:13:32.474Z,-0.4
2016-11-04T04:14:32.136Z,-0.39
2016-11-04T04:15:31.782Z,-0.39
2016-11-04T04:16:32.042Z,-0.4
2016-11-04T04:17:32.307Z,-0.42
2016-11-04T04:18:32.260Z,-0.47
2016-11-04T04:19:32.218Z,-0.47
2016-11-04T04:20:32.172Z,-0.44
2016-11-04T04:21:31.827Z,-0.52
2016-11-04T04:22:31.790Z,-0.55
2016-11-04T04:23:32.048Z,-0.43
2016-11-04T04:24:31.707Z,-0.51
2016-11-04T04:25:31.981Z,-0.54
2016-11-04T04:26:31.322Z,-0.47
2016-11-04T04:27:31.577Z,-0.51
2016-11-04T04:28:31.236Z,-0.54
2016-11-04T04:29:31.792Z,-0.51
2016-11-04T04:30:31.446Z,-0.61
2016-11-04T04:31:31.744Z,-0.55
2016-11-04T04:32:31.661Z,-0.54
2016-11-04T04:33:31.623Z,-0.6
2016-11-04T04:34:31.580Z,-0.61
2016-11-04T04:35:31.540Z,-0.65
2016-11-04T04:36:31.500Z,-0.61
2016-11-04T04:37:31.460Z,-0.57
2016-11-04T04:38:31.411Z,-0.61
2016-11-04T04:39:31.371Z,-0.55
2016-11-04T04:40:31.321Z,-0.52
2016-11-04T04:41:31.283Z,-0.58
2016-11-04T04:42:31.240Z,-0.6
2016-11-04T04:43:30.927Z,-0.54
2016-11-04T04:44:30.856Z,-0.54
2016-11-04T04:45:31.114Z,-0.6
2016-11-04T04:46:30.771Z,-0.6
2016-11-04T04:47:31.025Z,-0.58
2016-11-04T04:48:30.988Z,-0.57
2016-11-04T04:49:30.942Z,-0.57
2016-11-04T04:50:30.600Z,-0.58
2016-11-04T04:51:30.859Z,-0.57
2016-11-04T04:52:30.819Z,-0.57
2016-11-04T04:53:30.776Z,-0.54
2016-11-04T04:54:30.734Z,-0.61
2016-11-04T04:55:30.689Z,-0.58
2016-11-04T04:56:30.649Z,-0.61
2016-11-04T04:57:30.304Z,-0.58
2016-11-04T04:58:30.562Z,-0.57
2016-11-04T04:59:30.523Z,-0.67
2016-11-04T05:00:30.473Z,-0.52
2016-11-04T05:01:30.432Z,-0.46
2016-11-04T05:02:30.090Z,-0.58
2016-11-04T05:03:30.404Z,-0.54
2016-11-04T05:04:30.306Z,-0.54
2016-11-04T05:05:29.960Z,-0.43
2016-11-04T05:06:30.225Z,-0.39
2016-11-04T05:07:29.873Z,-0.39
2016-11-04T05:08:29.548Z,-0.36
2016-11-04T05:09:30.092Z,-0.29
2016-11-04T05:10:30.052Z,-0.34
2016-11-04T05:11:29.709Z,-0.36
2016-11-04T05:12:29.969Z,-0.31
2016-11-04T05:13:29.643Z,-0.25
2016-11-04T05:14:29.879Z,-0.31
2016-11-04T05:15:29.841Z,-0.14
2016-11-04T05:16:29.794Z,-0.21
2016-11-04T05:17:29.752Z,-0.03
2016-11-04T05:18:29.409Z,0.04
2016-11-04T05:19:29.669Z,-0.03
2016-11-04T05:20:29.628Z,0.15
2016-11-04T05:21:29.584Z,0.2
2016-11-04T05:22:29.542Z,0.2
2016-11-04T05:23:29.500Z,0.29
2016-11-04T05:24:29.458Z,0.38
2016-11-04T05:25:29.415Z,0.44
2016-11-04T05:26:29.073Z,0.47
2016-11-04T05:27:29.336Z,0.51
2016-11-04T05:28:29.286Z,0.61
2016-11-04T05:29:28.946Z,0.68
2016-11-04T05:30:29.204Z,0.68
2016-11-04T05:31:29.164Z,0.76
2016-11-04T05:32:29.122Z,0.79
2016-11-04T05:33:28.776Z,0.83
2016-11-04T05:34:28.736Z,0.93
2016-11-04T05:35:28.690Z,1
2016-11-04T05:36:28.947Z,0.94
2016-11-04T05:37:28.911Z,1.04
2016-11-04T05:38:28.562Z,1.04
2016-11-04T05:39:28.823Z,1.06
2016-11-04T05:40:28.782Z,1.15
2016-11-04T05:41:28.744Z,1.16
2016-11-04T05:42:28.700Z,1.12
2016-11-04T05:43:28.653Z,1.2
2016-11-04T05:44:28.313Z,1.23
2016-11-04T05:45:28.575Z,1.18
2016-11-04T05:46:28.528Z,1.24
2016-11-04T05:47:28.187Z,1.27
2016-11-04T05:48:28.144Z,1.32
2016-11-04T05:49:27.796Z,1.32
2016-11-04T05:50:28.359Z,1.3
2016-11-04T05:51:28.017Z,1.47
2016-11-04T05:52:28.281Z,1.41
2016-11-04T05:53:28.239Z,1.5
2016-11-04T05:54:28.193Z,1.48
2016-11-04T05:55:28.154Z,1.54
2016-11-04T05:56:28.115Z,1.55
2016-11-04T05:57:28.070Z,1.54
2016-11-04T05:58:28.031Z,1.6
2016-11-04T05:59:27.983Z,1.65
2016-11-04T06:00:27.941Z,1.59
2016-11-04T06:01:27.904Z,1.63
2016-11-04T06:02:27.554Z,1.7
2016-11-04T06:03:27.819Z,1.7
2016-11-04T06:04:27.774Z,1.72
2016-11-04T06:05:27.734Z,1.73
2016-11-04T06:06:27.692Z,1.8
2016-11-04T06:07:27.657Z,1.79
2016-11-04T06:08:27.609Z,1.81
2016-11-04T06:09:27.302Z,1.81
2016-11-04T06:10:27.539Z,1.8
2016-11-04T06:11:27.483Z,1.87
2016-11-04T06:12:27.145Z,1.9
2016-11-04T06:13:27.400Z,2
2016-11-04T06:14:27.063Z,2
2016-11-04T06:15:27.014Z,2
2016-11-04T06:16:27.273Z,1.88
2016-11-04T06:17:26.929Z,1.98
2016-11-04T06:18:26.890Z,1.91
2016-11-04T06:19:27.149Z,2.02
2016-11-04T06:20:26.811Z,2.12
2016-11-04T06:21:26.766Z,2.05
2016-11-04T06:22:26.724Z,2.12
2016-11-04T06:23:26.986Z,2.17
2016-11-04T06:24:26.646Z,2.18
2016-11-04T06:25:26.905Z,2.21
2016-11-04T06:26:26.556Z,2.18
2016-11-04T06:27:26.515Z,2.3
2016-11-04T06:28:26.473Z,2.27
2016-11-04T06:29:26.737Z,2.3
2016-11-04T06:30:26.694Z,2.31
2016-11-04T06:31:26.653Z,2.28
2016-11-04T06:32:26.614Z,2.34
2016-11-04T06:33:26.572Z,2.41
2016-11-04T06:34:26.528Z,2.43
2016-11-04T06:35:26.489Z,2.42
2016-11-04T06:36:25.843Z,2.43
2016-11-04T06:37:26.111Z,2.39
2016-11-04T06:38:26.365Z,2.49
2016-11-04T06:39:26.322Z,2.49
2016-11-04T06:40:26.285Z,2.54
2016-11-04T06:41:25.933Z,2.64
2016-11-04T06:42:26.201Z,2.56
2016-11-04T06:43:25.856Z,2.66
2016-11-04T06:44:25.814Z,2.69
2016-11-04T06:45:26.075Z,2.72
2016-11-04T06:46:26.033Z,2.72
2016-11-04T06:47:25.992Z,2.74
2016-11-04T06:48:25.651Z,2.85
2016-11-04T06:49:25.908Z,2.84
2016-11-04T06:50:25.876Z,2.81
2016-11-04T06:51:25.829Z,2.81
2016-11-04T06:52:25.785Z,2.87
2016-11-04T06:53:25.198Z,2.81
2016-11-04T06:54:25.702Z,2.79
2016-11-04T06:55:25.660Z,2.77
2016-11-04T06:56:25.619Z,2.81
2016-11-04T06:57:25.582Z,2.87
2016-11-04T06:58:25.233Z,2.79
2016-11-04T06:59:25.495Z,2.89
2016-11-04T07:00:25.150Z,2.84
2016-11-04T07:01:25.414Z,2.81
2016-11-04T07:02:25.377Z,2.89
2016-11-04T07:03:25.027Z,2.89
2016-11-04T07:04:25.013Z,2.95
2016-11-04T07:05:24.945Z,2.93
2016-11-04T07:06:25.206Z,2.96
2016-11-04T07:07:25.168Z,3.02
2016-11-04T07:08:24.823Z,2.96
2016-11-04T07:09:24.816Z,3.13
2016-11-04T07:10:24.744Z,3.06
2016-11-04T07:11:24.998Z,3.17
2016-11-04T07:12:24.659Z,3.15
2016-11-04T07:13:24.616Z,3.23
2016-11-04T07:14:24.575Z,3.15
2016-11-04T07:15:24.835Z,3.29
2016-11-04T07:16:24.490Z,3.33
2016-11-04T07:17:24.757Z,3.39
2016-11-04T07:18:24.723Z,3.42
2016-11-04T07:19:24.369Z,3.39
2016-11-04T07:20:24.631Z,3.47
2016-11-04T07:21:24.286Z,3.4
2016-11-04T07:22:24.279Z,3.39
2016-11-04T07:23:24.506Z,3.55
2016-11-04T07:24:24.471Z,3.58
2016-11-04T07:25:24.427Z,3.55
2016-11-04T07:26:24.083Z,3.55
2016-11-04T07:27:24.351Z,3.54
2016-11-04T07:28:24.303Z,3.75
2016-11-04T07:29:23.958Z,3.66
2016-11-04T07:30:24.223Z,3.72
2016-11-04T07:31:24.182Z,3.7
2016-11-04T07:32:24.135Z,3.78
2016-11-04T07:33:23.794Z,3.83
2016-11-04T07:34:24.055Z,3.86
2016-11-04T07:35:24.017Z,3.91
2016-11-04T07:36:23.371Z,4.05
2016-11-04T07:37:23.630Z,4.02
2016-11-04T07:38:23.892Z,4.15
2016-11-04T07:39:23.857Z,4.14
2016-11-04T07:40:23.511Z,4.18
2016-11-04T07:41:23.770Z,4.16
2016-11-04T07:42:23.733Z,4.16
2016-11-04T07:43:23.692Z,4.18
2016-11-04T07:44:23.649Z,4.16
2016-11-04T07:45:23.607Z,4.15
2016-11-04T07:46:23.572Z,4.11
2016-11-04T07:47:23.541Z,4.05
2016-11-04T07:48:23.485Z,4.23
2016-11-04T07:49:23.445Z,4.23
2016-11-04T07:50:23.410Z,4.18
2016-11-04T07:51:23.065Z,4.18
2016-11-04T07:52:23.327Z,4.2
2016-11-04T07:53:23.285Z,4.27
2016-11-04T07:54:23.247Z,4.33
2016-11-04T07:55:22.914Z,4.41
2016-11-04T07:56:23.166Z,4.44
2016-11-04T07:57:23.122Z,4.52
2016-11-04T07:58:23.081Z,4.41
2016-11-04T07:59:23.044Z,4.59
2016-11-04T08:00:23.005Z,4.59
2016-11-04T08:01:22.660Z,4.59
2016-11-04T08:02:22.621Z,4.62
2016-11-04T08:03:22.581Z,4.67
2016-11-04T08:04:22.839Z,4.73
2016-11-04T08:05:22.812Z,4.77
2016-11-04T08:06:22.759Z,4.84
2016-11-04T08:07:22.721Z,4.86
2016-11-04T08:08:22.680Z,4.97
2016-11-04T08:09:22.641Z,5.04
2016-11-04T08:10:22.298Z,5.02
2016-11-04T08:11:22.564Z,5.1
2016-11-04T08:12:22.522Z,5.12
2016-11-04T08:13:21.877Z,5.18
2016-11-04T08:14:22.140Z,5.28
2016-11-04T08:15:22.398Z,5.35
2016-11-04T08:16:21.769Z,5.33
2016-11-04T08:17:22.361Z,5.42
2016-11-04T08:18:22.279Z,5.42
2016-11-04T08:19:21.937Z,5.43
2016-11-04T08:20:22.226Z,5.48
2016-11-04T08:21:22.160Z,5.6
2016-11-04T08:22:21.820Z,5.6
2016-11-04T08:23:22.089Z,5.64
2016-11-04T08:24:22.044Z,5.68
2016-11-04T08:25:22.002Z,5.71
2016-11-04T08:26:21.660Z,5.79
2016-11-04T08:27:21.925Z,5.79
2016-11-04T08:28:21.882Z,5.75
2016-11-04T08:29:21.847Z,5.9
2016-11-04T08:30:21.500Z,5.89
2016-11-04T08:31:21.762Z,5.99
2016-11-04T08:32:21.722Z,6.01
2016-11-04T08:33:21.692Z,5.99
2016-11-04T08:34:21.645Z,6.11
2016-11-04T08:35:21.615Z,6.09
2016-11-04T08:36:21.564Z,6.03
2016-11-04T08:37:21.527Z,6.03
2016-11-04T08:38:21.499Z,6.12
2016-11-04T08:39:21.445Z,6.14
2016-11-04T08:40:21.407Z,6.04
2016-11-04T08:41:21.378Z,6.06
2016-11-04T08:42:21.328Z,6.01
2016-11-04T08:43:20.991Z,6.08
2016-11-04T08:44:21.252Z,6.09
2016-11-04T08:45:21.213Z,6.08
2016-11-04T08:46:21.172Z,6.08
2016-11-04T08:47:20.831Z,6.17
2016-11-04T08:48:21.092Z,6.11
2016-11-04T08:49:21.060Z,6.14
2016-11-04T08:50:21.017Z,6.01
2016-11-04T08:51:20.984Z,6.19
2016-11-04T08:52:20.636Z,6.06
2016-11-04T08:53:20.899Z,6.21
2016-11-04T08:54:20.556Z,6.19
2016-11-04T08:55:20.821Z,6.28
2016-11-04T08:56:20.782Z,6.25
2016-11-04T08:57:20.137Z,6.37
2016-11-04T08:58:20.097Z,6.43
2016-11-04T08:59:20.358Z,6.4
2016-11-04T09:00:20.627Z,6.46
2016-11-04T09:01:20.283Z,6.56
2016-11-04T09:02:20.243Z,6.66
2016-11-04T09:03:20.511Z,6.7
2016-11-04T09:04:20.164Z,6.74
2016-11-04T09:05:20.433Z,6.79
2016-11-04T09:06:20.086Z,6.88
2016-11-04T09:07:20.051Z,6.87
2016-11-04T09:08:20.316Z,6.76
2016-11-04T09:09:19.973Z,6.87
2016-11-04T09:10:20.232Z,6.89
2016-11-04T09:11:20.195Z,6.85
2016-11-04T09:12:20.192Z,6.87
2016-11-04T09:13:20.115Z,6.92
2016-11-04T09:14:19.777Z,7.05
2016-11-04T09:15:20.038Z,6.99
2016-11-04T09:16:19.396Z,6.97
2016-11-04T09:17:19.965Z,7.02
2016-11-04T09:18:19.685Z,7.07
2016-11-04T09:19:19.581Z,7.05
2016-11-04T09:20:19.540Z,7.2
2016-11-04T09:21:19.504Z,7.09
2016-11-04T09:22:19.767Z,7.07
2016-11-04T09:23:19.728Z,7.21
2016-11-04T09:24:19.387Z,7.21
2016-11-04T09:25:19.649Z,7.23
2016-11-04T09:26:19.613Z,7.27
2016-11-04T09:27:19.573Z,7.3
2016-11-04T09:28:19.535Z,7.31
2016-11-04T09:29:19.199Z,7.35
2016-11-04T09:30:19.463Z,7.27
2016-11-04T09:31:19.425Z,7.28
2016-11-04T09:32:19.415Z,7.37
2016-11-04T09:33:19.343Z,7.25
2016-11-04T09:34:19.308Z,7.3
2016-11-04T09:35:19.278Z,7.31
2016-11-04T09:36:18.926Z,7.32
2016-11-04T09:37:18.886Z,7.35
2016-11-04T09:38:18.849Z,7.42
2016-11-04T09:39:19.110Z,7.49
2016-11-04T09:40:19.081Z,7.67
2016-11-04T09:41:19.044Z,7.8
2016-11-04T09:42:18.697Z,8.16
2016-11-04T09:43:18.659Z,8.38
2016-11-04T09:44:18.923Z,9.01
2016-11-04T09:45:18.889Z,9.56
2016-11-04T09:46:18.545Z,9.89
2016-11-04T09:47:18.542Z,10.23
2016-11-04T09:48:18.169Z,10.41
2016-11-04T09:49:18.735Z,10.56
2016-11-04T09:50:18.694Z,10.7
2016-11-04T09:51:18.662Z,10.78
2016-11-04T09:52:18.624Z,10.89
2016-11-04T09:53:18.285Z,10.78
2016-11-04T09:54:18.571Z,10.86
2016-11-04T09:55:18.209Z,10.97
2016-11-04T09:56:18.477Z,11
2016-11-04T09:57:18.443Z,11.24
2016-11-04T09:58:18.103Z,11.28
2016-11-04T09:59:18.368Z,11.35
2016-11-04T10:00:18.333Z,11.33
2016-11-04T10:01:18.297Z,11.25
2016-11-04T10:02:17.962Z,11.27
2016-11-04T10:03:18.227Z,11.25
2016-11-04T10:04:17.586Z,11.21
2016-11-04T10:05:18.164Z,11.21
2016-11-04T10:06:18.117Z,11.27
2016-11-04T10:07:18.079Z,11.24
2016-11-04T10:08:18.052Z,11.24
2016-11-04T10:09:18.014Z,11.19
2016-11-04T10:10:17.975Z,11.25
2016-11-04T10:11:17.945Z,11.42
2016-11-04T10:12:17.307Z,11.6
2016-11-04T10:13:17.873Z,11.8
2016-11-04T10:14:17.843Z,11.96
2016-11-04T10:15:17.505Z,12.05
2016-11-04T10:16:17.164Z,12.21
2016-11-04T10:17:17.426Z,12.2
2016-11-04T10:18:17.697Z,12.24
2016-11-04T10:19:17.661Z,12.29
2016-11-04T10:20:17.024Z,12.47
2016-11-04T10:21:17.596Z,12.59
2016-11-04T10:22:17.570Z,12.74
2016-11-04T10:23:17.549Z,13.05
2016-11-04T10:24:17.493Z,13.05
2016-11-04T10:25:17.457Z,13.2
2016-11-04T10:26:17.419Z,13.29
2016-11-04T10:27:17.085Z,13.7
2016-11-04T10:28:17.351Z,14.24
2016-11-04T10:29:17.325Z,14.72
2016-11-04T10:30:17.290Z,15.07
2016-11-04T10:31:17.249Z,15.19
2016-11-04T10:32:17.248Z,15.21
2016-11-04T10:33:16.881Z,15.29
2016-11-04T10:34:16.856Z,15.44
2016-11-04T10:35:16.816Z,15.72
2016-11-04T10:36:16.781Z,16.24
2016-11-04T10:37:17.055Z,16.75
2016-11-04T10:38:16.720Z,17.22
2016-11-04T10:39:16.989Z,17.54
2016-11-04T10:40:16.965Z,17.86
2016-11-04T10:41:16.621Z,17.93
2016-11-04T10:42:16.594Z,18.11
2016-11-04T10:43:16.869Z,18.2
2016-11-04T10:44:16.533Z,18.41
2016-11-04T10:45:16.503Z,18.51
2016-11-04T10:46:16.478Z,18.69
2016-11-04T10:47:16.444Z,18.85
2016-11-04T10:48:16.717Z,18.87
2016-11-04T10:49:16.380Z,18.92
2016-11-04T10:50:16.655Z,18.69
2016-11-04T10:51:16.623Z,18.62
2016-11-04T10:52:16.606Z,18.6
2016-11-04T10:53:16.269Z,18.69
2016-11-04T10:54:16.548Z,18.7
2016-11-04T10:55:15.913Z,18.69
2016-11-04T10:56:16.191Z,18.66
2016-11-04T10:57:16.153Z,18.7
2016-11-04T10:58:16.253Z,18.73
2016-11-04T10:59:16.392Z,18.7
2016-11-04T11:00:16.365Z,18.6
2016-11-04T11:01:16.337Z,18.39
2016-11-04T11:02:16.306Z,18.42
2016-11-04T11:03:15.975Z,18.3
2016-11-04T11:04:16.257Z,18.23
2016-11-04T11:05:16.224Z,18.11
2016-11-04T11:06:16.193Z,17.92
2016-11-04T11:07:16.165Z,17.78
2016-11-04T11:08:16.132Z,17.72
2016-11-04T11:09:16.108Z,17.74
2016-11-04T11:10:16.079Z,17.72
2016-11-04T11:11:16.060Z,17.84
2016-11-04T11:12:16.081Z,18
2016-11-04T11:13:15.992Z,18.1
2016-11-04T11:14:15.957Z,18.08
2016-11-04T11:15:15.929Z,18.08
2016-11-04T11:16:15.895Z,17.95
2016-11-04T11:17:15.567Z,17.78
2016-11-04T11:18:15.837Z,17.68
2016-11-04T11:19:15.809Z,17.44
2016-11-04T11:20:15.779Z,17.25
2016-11-04T11:21:15.444Z,16.91
2016-11-04T11:22:15.723Z,16.63
2016-11-04T11:23:15.389Z,16.27
2016-11-04T11:24:15.661Z,16.15
2016-11-04T11:25:15.330Z,15.8
2016-11-04T11:26:15.607Z,15.25
2016-11-04T11:27:15.570Z,14.95
2016-11-04T11:28:15.250Z,14.54
2016-11-04T11:29:15.519Z,14.4
2016-11-04T11:30:15.191Z,14.18
2016-11-04T11:31:15.141Z,13.87
2016-11-04T11:32:15.110Z,13.67
2016-11-04T11:33:15.093Z,13.49
2016-11-04T11:34:14.752Z,13.44
2016-11-04T11:35:15.336Z,13.32
2016-11-04T11:36:15.287Z,13.15
2016-11-04T11:37:15.258Z,13.08
2016-11-04T11:38:15.221Z,13.04
2016-11-04T11:39:15.186Z,12.97
2016-11-04T11:40:14.550Z,12.89
2016-11-04T11:41:15.124Z,12.75
2016-11-04T11:42:14.784Z,12.78
2016-11-04T11:43:15.053Z,12.72
2016-11-04T11:44:15.031Z,12.67
2016-11-04T11:45:14.689Z,12.56
2016-11-04T11:46:14.960Z,12.54
2016-11-04T11:47:14.936Z,12.49
2016-11-04T11:48:14.891Z,12.42
2016-11-04T11:49:14.867Z,12.32
2016-11-04T11:50:14.842Z,12.32
2016-11-04T11:51:14.485Z,12.32
2016-11-04T11:52:14.149Z,12.31
2016-11-04T11:53:14.720Z,12.28
2016-11-04T11:54:14.386Z,12.32
2016-11-04T11:55:14.651Z,12.31
2016-11-04T11:56:14.624Z,12.35
2016-11-04T11:57:14.282Z,12.23
2016-11-04T11:58:14.247Z,12.21
2016-11-04T11:59:14.525Z,12.17
2016-11-04T12:00:14.484Z,12.24
2016-11-04T12:01:14.148Z,12.13
2016-11-04T12:02:14.112Z,12.21
2016-11-04T12:03:14.378Z,12.12
2016-11-04T12:04:14.342Z,12.19
2016-11-04T12:05:14.310Z,12.16
2016-11-04T12:06:14.273Z,12.21
2016-11-04T12:07:14.235Z,12.19
2016-11-04T12:08:13.901Z,12.21
2016-11-04T12:09:14.168Z,12.23
2016-11-04T12:10:14.167Z,12.12
2016-11-04T12:11:13.794Z,11.94
2016-11-04T12:12:13.761Z,11.73
2016-11-04T12:13:14.028Z,11.72
2016-11-04T12:14:13.993Z,11.62
2016-11-04T12:15:13.955Z,11.61
2016-11-04T12:16:13.924Z,11.58
2016-11-04T12:17:13.887Z,11.51
2016-11-04T12:18:13.582Z,11.44
2016-11-04T12:19:13.815Z,11.37
2016-11-04T12:20:13.179Z,11.42
2016-11-04T12:21:13.749Z,11.32
2016-11-04T12:22:13.406Z,11.32
2016-11-04T12:23:13.673Z,11.28
2016-11-04T12:24:13.639Z,11.29
2016-11-04T12:25:13.599Z,11.29
2016-11-04T12:26:13.572Z,11.28
2016-11-04T12:27:13.529Z,11.33
2016-11-04T12:28:13.192Z,11.32
2016-11-04T12:29:13.459Z,11.33
2016-11-04T12:30:13.123Z,11.27
2016-11-04T12:31:13.388Z,11.24
2016-11-04T12:32:13.052Z,11.22
2016-11-04T12:33:13.318Z,11.27
2016-11-04T12:34:13.279Z,11.24
2016-11-04T12:35:12.943Z,11.1
2016-11-04T12:36:13.211Z,11.11
2016-11-04T12:37:12.868Z,11.03
2016-11-04T12:38:13.133Z,10.97
2016-11-04T12:39:12.494Z,10.92
2016-11-04T12:40:13.062Z,11.02
2016-11-04T12:41:12.728Z,11.1
2016-11-04T12:42:12.689Z,11.04
2016-11-04T12:43:12.958Z,11.07
2016-11-04T12:44:12.935Z,11.22
2016-11-04T12:45:12.886Z,11.24
2016-11-04T12:46:12.851Z,11.27
2016-11-04T12:47:12.817Z,11.35
2016-11-04T12:48:12.776Z,11.27
2016-11-04T12:49:12.741Z,11.35
2016-11-04T12:50:12.419Z,11.28
2016-11-04T12:51:12.671Z,11.25
2016-11-04T12:52:12.644Z,11.28
2016-11-04T12:53:12.603Z,11.27
2016-11-04T12:54:12.566Z,11.29
2016-11-04T12:55:12.526Z,11.35
2016-11-04T12:56:12.190Z,11.33
2016-11-04T12:57:12.151Z,11.29
2016-11-04T12:58:12.415Z,11.28
2016-11-04T12:59:12.081Z,11.32
2016-11-04T13:00:12.347Z,11.27
2016-11-04T13:01:12.318Z,11.32
2016-11-04T13:02:11.977Z,11.36
2016-11-04T13:03:11.940Z,11.24
2016-11-04T13:04:12.208Z,11.32
2016-11-04T13:05:12.171Z,11.33
2016-11-04T13:06:12.163Z,11.25
2016-11-04T13:07:12.097Z,11.29
2016-11-04T13:08:11.766Z,11.33
2016-11-04T13:09:12.057Z,11.4